createdAt,value
2023-01-05T00:01:09.607Z,59.54
2023-01-05T00:03:37.031Z,59.37
2023-01-05T00:06:06.759Z,59.59
2023-01-05T00:08:37.530Z,59.12
2023-01-05T00:11:30.042Z,59.52
2023-01-05T00:14:15.649Z,59.43
2023-01-05T00:17:00.814Z,59.28
2023-01-05T00:19:45.899Z,59.32
2023-01-05T00:22:38.453Z,59.41
2023-01-05T00:25:12.421Z,59.33
2023-01-05T00:27:44.900Z,59.65
2023-01-05T00:30:17.163Z,59.70
2023-01-05T00:32:44.031Z,59.46
2023-01-05T00:35:12.308Z,59.62
2023-01-05T00:37:39.388Z,59.56
2023-01-05T00:40:11.844Z,59.76
2023-01-05T00:42:38.862Z,59.50
2023-01-05T00:45:07.629Z,59.70
2023-01-05T00:47:34.177Z,59.72
2023-01-05T00:50:00.851Z,59.79
2023-01-05T00:52:27.734Z,59.44
2023-01-05T00:54:54.228Z,59.45
2023-01-05T00:57:20.756Z,59.63
2023-01-05T00:59:47.300Z,59.53
2023-01-05T01:02:14.807Z,59.75
2023-01-05T01:04:41.609Z,59.25
2023-01-05T01:07:08.193Z,59.52
2023-01-05T01:09:35.293Z,59.71
2023-01-05T01:12:02.349Z,59.46
2023-01-05T01:14:29.303Z,59.83
2023-01-05T01:16:55.998Z,59.44
2023-01-05T01:19:26.082Z,59.46
2023-01-05T01:21:53.828Z,59.74
2023-01-05T01:24:27.508Z,59.51
2023-01-05T01:26:55.392Z,59.93
2023-01-05T01:29:23.865Z,59.43
2023-01-05T01:31:52.547Z,59.64
2023-01-05T01:34:19.362Z,59.52
2023-01-05T01:36:45.975Z,59.67
2023-01-05T01:39:13.869Z,59.92
2023-01-05T01:41:44.275Z,59.85
2023-01-05T01:44:49.377Z,59.83
2023-01-05T01:47:39.799Z,60.02
2023-01-05T01:50:20.116Z,59.77
2023-01-05T01:52:49.518Z,60.09
2023-01-05T01:55:16.984Z,59.96
2023-01-05T01:57:45.233Z,60.00
2023-01-05T02:00:14.764Z,60.12
2023-01-05T02:02:48.213Z,60.03
2023-01-05T02:05:20.059Z,59.97
2023-01-05T02:07:47.970Z,60.29
2023-01-05T02:10:18.930Z,60.15
2023-01-05T02:13:02.264Z,60.63
2023-01-05T02:15:51.204Z,60.64
2023-01-05T02:18:40.375Z,60.37
2023-01-05T02:21:21.246Z,60.42
2023-01-05T02:24:15.496Z,60.48
2023-01-05T02:27:00.469Z,60.42
2023-01-05T02:29:51.964Z,60.70
2023-01-05T02:32:40.067Z,60.96
2023-01-05T02:35:40.683Z,60.62
2023-01-05T02:38:22.728Z,60.79
2023-01-05T02:40:56.787Z,60.64
2023-01-05T02:43:23.864Z,60.72
2023-01-05T02:45:50.458Z,60.73
2023-01-05T02:48:17.065Z,60.87
2023-01-05T02:50:52.895Z,60.87
2023-01-05T02:53:28.727Z,60.93
2023-01-05T02:56:00.937Z,61.03
2023-01-05T02:58:43.683Z,60.83
2023-01-05T03:01:25.308Z,60.75
2023-01-05T03:03:57.602Z,61.10
2023-01-05T03:06:33.449Z,61.15
2023-01-05T03:09:06.129Z,61.16
2023-01-05T03:12:16.489Z,61.13
2023-01-05T03:14:52.805Z,60.81
2023-01-05T03:17:29.549Z,61.09
2023-01-05T03:19:57.799Z,60.87
2023-01-05T03:22:48.093Z,61.08
2023-01-05T03:25:37.450Z,61.36
2023-01-05T03:28:27.379Z,61.34
2023-01-05T03:31:32.345Z,61.13
2023-01-05T03:34:25.306Z,60.95
2023-01-05T03:36:59.078Z,60.77
2023-01-05T03:39:27.459Z,60.92
2023-01-05T03:41:56.482Z,61.08
2023-01-05T03:44:23.344Z,61.08
2023-01-05T03:46:51.102Z,61.21
2023-01-05T03:49:17.779Z,60.89
2023-01-05T03:51:44.714Z,61.09
2023-01-05T03:54:12.227Z,60.58
2023-01-05T03:56:40.761Z,60.72
2023-01-05T03:59:07.321Z,60.88
2023-01-05T04:01:36.191Z,60.81
2023-01-05T04:04:03.454Z,60.67
2023-01-05T04:06:29.988Z,60.57
2023-01-05T04:08:57.663Z,60.53
2023-01-05T04:11:25.798Z,60.61
2023-01-05T04:14:00.116Z,60.79
2023-01-05T04:16:28.577Z,60.59
2023-01-05T04:18:57.816Z,60.64
2023-01-05T04:21:24.563Z,60.60
2023-01-05T04:23:53.662Z,60.35
2023-01-05T04:26:20.199Z,60.58
2023-01-05T04:28:49.605Z,60.25
2023-01-05T04:31:17.727Z,60.11
2023-01-05T04:33:45.463Z,60.39
2023-01-05T04:36:16.232Z,60.17
2023-01-05T04:38:42.726Z,60.25
2023-01-05T04:41:09.559Z,60.36
2023-01-05T04:43:36.174Z,60.14
2023-01-05T04:46:02.855Z,60.09
2023-01-05T04:48:31.972Z,60.39
2023-01-05T04:50:59.546Z,60.00
2023-01-05T04:53:33.546Z,59.96
2023-01-05T04:56:00.569Z,60.13
2023-01-05T04:58:32.572Z,60.03
2023-01-05T05:00:59.232Z,60.21
2023-01-05T05:03:32.989Z,60.17
2023-01-05T05:06:00.849Z,59.82
2023-01-05T05:08:29.060Z,60.18
2023-01-05T05:10:56.107Z,60.05
2023-01-05T05:13:23.246Z,60.40
2023-01-05T05:15:52.062Z,60.25
2023-01-05T05:18:19.021Z,60.04
2023-01-05T05:20:50.100Z,60.18
2023-01-05T05:23:18.041Z,60.29
2023-01-05T05:25:45.017Z,60.29
2023-01-05T05:28:11.586Z,59.94
2023-01-05T05:30:38.294Z,59.83
2023-01-05T05:33:04.851Z,60.02
2023-01-05T05:35:31.395Z,60.28
2023-01-05T05:37:57.893Z,59.91
2023-01-05T05:40:26.234Z,60.09
2023-01-05T05:42:52.747Z,60.34
2023-01-05T05:45:19.242Z,59.86
2023-01-05T05:47:45.863Z,60.12
2023-01-05T05:50:12.573Z,60.01
2023-01-05T05:52:39.088Z,59.75
2023-01-05T05:55:06.279Z,59.93
2023-01-05T05:57:32.772Z,59.76
2023-01-05T05:59:59.246Z,60.03
2023-01-05T06:02:25.834Z,60.13
2023-01-05T06:04:52.367Z,59.69
2023-01-05T06:07:18.965Z,60.19
2023-01-05T06:09:45.505Z,60.21
2023-01-05T06:12:12.105Z,59.71
2023-01-05T06:14:38.751Z,60.17
2023-01-05T06:17:05.256Z,59.89
2023-01-05T06:19:31.835Z,59.79
2023-01-05T06:21:58.310Z,59.76
2023-01-05T06:24:24.870Z,59.87
2023-01-05T06:26:51.366Z,60.13
2023-01-05T06:29:17.933Z,60.22
2023-01-05T06:31:44.584Z,60.17
2023-01-05T06:34:11.275Z,60.19
2023-01-05T06:36:37.810Z,59.91
2023-01-05T06:39:04.451Z,60.41
2023-01-05T06:41:30.967Z,60.15
2023-01-05T06:43:57.491Z,60.14
2023-01-05T06:46:24.176Z,60.27
2023-01-05T06:48:51.286Z,60.54
2023-01-05T06:51:18.487Z,60.47
2023-01-05T06:53:45.096Z,60.23
2023-01-05T06:56:11.622Z,60.26
2023-01-05T06:58:38.331Z,60.52
2023-01-05T07:01:05.257Z,60.35
2023-01-05T07:03:31.965Z,60.35
2023-01-05T07:05:58.544Z,60.31
2023-01-05T07:08:25.178Z,60.49
2023-01-05T07:10:51.798Z,60.42
2023-01-05T07:13:18.316Z,60.97
2023-01-05T07:15:44.832Z,60.77
2023-01-05T07:18:12.159Z,60.71
2023-01-05T07:20:38.757Z,60.57
2023-01-05T07:23:05.338Z,60.53
2023-01-05T07:25:33.182Z,60.52
2023-01-05T07:27:59.864Z,60.91
2023-01-05T07:30:26.491Z,60.66
2023-01-05T07:32:52.977Z,60.81
2023-01-05T07:35:19.643Z,60.49
2023-01-05T07:37:46.197Z,61.04
2023-01-05T07:40:12.960Z,60.73
2023-01-05T07:42:39.429Z,60.73
2023-01-05T07:45:09.193Z,61.01
2023-01-05T07:47:39.417Z,60.93
2023-01-05T07:50:06.725Z,60.70
2023-01-05T07:52:33.247Z,60.77
2023-01-05T07:54:59.841Z,60.44
2023-01-05T07:57:26.413Z,60.77
2023-01-05T07:59:53.017Z,60.86
2023-01-05T08:02:20.327Z,60.58
2023-01-05T08:04:47.206Z,60.88
2023-01-05T08:07:15.631Z,60.73
2023-01-05T08:10:00.534Z,60.48
2023-01-05T08:12:30.893Z,60.54
2023-01-05T08:14:57.520Z,60.28
2023-01-05T08:17:24.092Z,60.38
2023-01-05T08:19:50.738Z,60.67
2023-01-05T08:22:17.231Z,60.62
2023-01-05T08:24:43.779Z,60.37
2023-01-05T08:27:10.475Z,60.58
2023-01-05T08:29:36.992Z,60.76
2023-01-05T08:32:03.596Z,60.77
2023-01-05T08:34:34.452Z,60.44
2023-01-05T08:37:01.479Z,60.49
2023-01-05T08:39:28.097Z,60.66
2023-01-05T08:41:58.983Z,60.47
2023-01-05T08:44:28.928Z,60.48
2023-01-05T08:46:55.459Z,60.52
2023-01-05T08:49:22.181Z,60.54
2023-01-05T08:51:49.109Z,60.79
2023-01-05T08:54:15.710Z,60.73
2023-01-05T08:56:43.955Z,60.64
2023-01-05T08:59:14.181Z,60.71
2023-01-05T09:01:40.882Z,60.64
2023-01-05T09:04:08.322Z,60.70
2023-01-05T09:06:35.047Z,60.60
2023-01-05T09:09:01.642Z,60.58
2023-01-05T09:11:28.343Z,60.29
2023-01-05T09:13:57.617Z,60.47
2023-01-05T09:17:05.659Z,60.43
2023-01-05T09:19:14.254Z,60.13
2023-01-05T09:21:41.014Z,60.31
2023-01-05T09:24:12.810Z,60.26
2023-01-05T09:26:40.444Z,60.65
2023-01-05T09:29:06.997Z,60.57
2023-01-05T09:31:33.530Z,60.56
2023-01-05T09:34:00.177Z,60.26
2023-01-05T09:36:26.841Z,60.41
2023-01-05T09:38:55.735Z,60.22
2023-01-05T09:41:36.746Z,60.37
2023-01-05T09:44:24.192Z,60.34
2023-01-05T09:46:51.794Z,60.12
2023-01-05T09:49:21.786Z,59.87
2023-01-05T09:51:52.135Z,60.29
2023-01-05T09:54:19.343Z,59.98
2023-01-05T09:59:42.675Z,59.90
2023-01-05T10:02:21.459Z,59.90
2023-01-05T10:04:49.735Z,60.20
2023-01-05T10:07:23.974Z,59.92
2023-01-05T10:09:53.390Z,60.13
2023-01-05T10:12:48.322Z,60.04
2023-01-05T10:15:20.607Z,60.12
2023-01-05T10:17:48.834Z,60.09
2023-01-05T10:20:43.305Z,59.74
2023-01-05T10:23:23.309Z,60.24
2023-01-05T10:25:55.325Z,59.79
2023-01-05T10:28:32.984Z,59.99
2023-01-05T10:31:11.853Z,60.03
2023-01-05T10:33:56.622Z,59.82
2023-01-05T10:40:08.588Z,59.95
2023-01-05T10:42:35.415Z,59.47
2023-01-05T10:45:04.803Z,59.48
2023-01-05T10:47:35.872Z,59.28
2023-01-05T10:50:04.516Z,59.71
2023-01-05T10:52:31.437Z,59.71
2023-01-05T10:55:00.325Z,59.56
2023-01-05T10:57:34.682Z,59.69
2023-01-05T11:00:07.262Z,59.67
2023-01-05T11:02:37.620Z,59.65
2023-01-05T11:05:18.779Z,59.29
2023-01-05T11:08:01.312Z,59.30
2023-01-05T11:10:31.565Z,59.42
2023-01-05T11:13:17.424Z,59.63
2023-01-05T11:15:51.379Z,59.46
2023-01-05T11:18:36.023Z,59.57
2023-01-05T11:21:08.512Z,59.52
2023-01-05T11:23:41.146Z,59.52
2023-01-05T11:26:22.774Z,59.24
2023-01-05T11:29:09.158Z,59.49
2023-01-05T11:31:44.751Z,59.17
2023-01-05T11:34:29.995Z,59.48
2023-01-05T11:37:04.091Z,59.54
2023-01-05T11:39:35.699Z,59.50
2023-01-05T11:42:10.109Z,59.27
2023-01-05T11:44:37.750Z,59.04
2023-01-05T11:47:06.677Z,59.47
2023-01-05T11:49:33.914Z,59.60
2023-01-05T11:52:00.453Z,59.53
2023-01-05T11:54:33.996Z,59.43
2023-01-05T11:57:11.885Z,59.56
2023-01-05T11:59:38.399Z,59.55
2023-01-05T12:02:23.372Z,59.52
2023-01-05T12:05:04.793Z,59.50
2023-01-05T12:07:39.858Z,59.04
2023-01-05T12:10:12.430Z,59.11
2023-01-05T12:13:08.895Z,58.76
2023-01-05T12:15:51.894Z,59.07
2023-01-05T12:18:59.429Z,59.00
2023-01-05T12:21:34.420Z,58.92
2023-01-05T12:24:33.004Z,58.98
2023-01-05T12:27:17.739Z,58.53
2023-01-05T12:36:16.067Z,58.23
2023-01-05T12:38:56.535Z,58.18
2023-01-05T12:41:37.973Z,58.18
2023-01-05T12:44:39.454Z,58.19
2023-01-05T12:47:18.097Z,58.00
2023-01-05T12:49:51.054Z,58.22
2023-01-05T12:52:32.859Z,57.95
2023-01-05T12:55:27.950Z,58.16
2023-01-05T12:58:04.786Z,58.55
2023-01-05T13:00:36.139Z,58.64
2023-01-05T13:03:14.821Z,58.68
2023-01-05T13:05:54.979Z,58.35
2023-01-05T13:08:31.837Z,58.24
2023-01-05T13:11:04.869Z,58.17
2023-01-05T13:13:47.929Z,57.82
2023-01-05T13:16:27.168Z,57.90
2023-01-05T13:19:00.677Z,57.58
2023-01-05T13:21:28.910Z,57.36
2023-01-05T13:24:03.516Z,57.31
2023-01-05T13:26:37.573Z,57.75
2023-01-05T13:29:05.005Z,57.76
2023-01-05T13:31:53.116Z,57.60
2023-01-05T13:34:28.763Z,57.61
2023-01-05T13:37:04.938Z,57.36
2023-01-05T13:39:50.251Z,57.63
2023-01-05T13:42:48.806Z,57.85
2023-01-05T13:45:34.008Z,57.89
2023-01-05T13:48:45.425Z,57.38
2023-01-05T13:51:26.909Z,57.89
2023-01-05T13:53:56.848Z,57.89
2023-01-05T13:56:29.421Z,57.94
2023-01-05T13:59:24.657Z,57.89
2023-01-05T14:02:04.630Z,57.49
2023-01-05T14:04:33.855Z,57.87
2023-01-05T14:07:14.903Z,57.90
2023-01-05T14:09:52.962Z,57.47
2023-01-05T14:12:21.278Z,57.81
2023-01-05T14:15:25.658Z,57.97
2023-01-05T14:17:52.336Z,57.58
2023-01-05T14:20:36.496Z,58.16
2023-01-05T14:23:23.565Z,57.92
2023-01-05T14:25:54.674Z,58.07
2023-01-05T14:28:43.360Z,57.84
2023-01-05T14:31:18.908Z,57.92
2023-01-05T14:33:48.143Z,57.52
2023-01-05T14:36:33.559Z,57.71
2023-01-05T14:39:03.599Z,58.00
2023-01-05T14:41:31.302Z,57.95
2023-01-05T14:44:14.736Z,58.16
2023-01-05T14:46:48.477Z,58.03
2023-01-05T14:49:22.500Z,57.89
2023-01-05T14:51:55.595Z,57.66
2023-01-05T14:54:40.541Z,57.82
2023-01-05T14:57:25.548Z,57.75
2023-01-05T15:00:11.871Z,58.03
2023-01-05T15:03:11.367Z,57.92
2023-01-05T15:05:49.768Z,58.25
2023-01-05T15:08:27.782Z,58.10
2023-01-05T15:11:13.896Z,58.18
2023-01-05T15:14:23.939Z,58.32
2023-01-05T15:17:23.203Z,58.07
2023-01-05T15:19:52.491Z,58.25
2023-01-05T15:22:39.141Z,58.39
2023-01-05T15:25:49.521Z,58.28
2023-01-05T15:28:33.486Z,58.26
2023-01-05T15:31:18.450Z,58.04
2023-01-05T15:33:54.834Z,58.47
2023-01-05T15:36:35.548Z,58.15
2023-01-05T15:39:02.111Z,58.65
2023-01-05T15:41:29.179Z,58.44
2023-01-05T15:43:56.333Z,58.82
2023-01-05T15:46:33.852Z,58.50
2023-01-05T15:49:01.380Z,58.77
2023-01-05T15:51:32.818Z,59.10
2023-01-05T15:54:03.979Z,58.96
2023-01-05T15:56:31.865Z,59.15
2023-01-05T15:58:59.647Z,59.20
2023-01-05T16:01:27.553Z,59.16
2023-01-05T16:04:09.815Z,59.32
2023-01-05T16:06:39.649Z,59.23
2023-01-05T16:09:21.114Z,59.36
2023-01-05T16:11:51.178Z,59.08
2023-01-05T16:14:28.637Z,59.23
2023-01-05T16:17:07.703Z,59.22
2023-01-05T16:19:53.672Z,59.24
2023-01-05T16:22:23.197Z,59.43
2023-01-05T16:25:07.478Z,59.22
2023-01-05T16:27:40.378Z,59.39
2023-01-05T16:30:25.975Z,59.45
2023-01-05T16:33:05.057Z,59.27
2023-01-05T16:35:47.876Z,59.75
2023-01-05T16:38:22.103Z,59.55
2023-01-05T16:40:49.545Z,59.59
2023-01-05T16:43:31.457Z,59.68
2023-01-05T16:46:18.690Z,60.06
2023-01-05T16:48:49.371Z,59.81
2023-01-05T16:51:37.194Z,60.30
2023-01-05T16:54:16.805Z,60.28
2023-01-05T16:56:57.877Z,60.24
2023-01-05T16:59:34.124Z,60.65
2023-01-05T17:02:01.567Z,60.29
2023-01-05T17:04:28.221Z,60.85
2023-01-05T17:06:57.763Z,60.47
2023-01-05T17:09:29.480Z,61.02
2023-01-05T17:11:56.492Z,60.75
2023-01-05T17:14:24.320Z,60.74
2023-01-05T17:16:50.860Z,61.08
2023-01-05T17:19:19.895Z,61.07
2023-01-05T17:21:59.218Z,61.13
2023-01-05T17:24:27.804Z,60.97
2023-01-05T17:26:54.591Z,61.64
2023-01-05T17:29:23.492Z,61.44
2023-01-05T17:31:53.299Z,61.25
2023-01-05T17:34:20.675Z,61.43
2023-01-05T17:36:48.900Z,61.67
2023-01-05T17:39:19.981Z,61.52
2023-01-05T17:41:46.818Z,61.80
2023-01-05T17:44:16.161Z,61.99
2023-01-05T17:46:48.303Z,62.05
2023-01-05T17:49:21.176Z,62.17
2023-01-05T17:51:47.808Z,62.15
2023-01-05T17:54:14.684Z,62.19
2023-01-05T17:56:41.312Z,62.18
2023-01-05T17:59:07.927Z,62.00
2023-01-05T18:01:34.614Z,62.07
2023-01-05T18:04:02.133Z,62.23
2023-01-05T18:06:28.927Z,62.03
2023-01-05T18:08:55.547Z,62.01
2023-01-05T18:11:22.375Z,62.34
2023-01-05T18:13:49.329Z,62.71
2023-01-05T18:16:16.357Z,62.55
2023-01-05T18:18:42.937Z,62.78
2023-01-05T18:21:09.462Z,62.41
2023-01-05T18:23:36.295Z,62.35
2023-01-05T18:26:07.197Z,62.62
2023-01-05T18:28:34.016Z,62.71
2023-01-05T18:31:01.152Z,62.80
2023-01-05T18:33:28.391Z,62.58
2023-01-05T18:38:26.566Z,62.93
2023-01-05T18:40:53.226Z,62.64
2023-01-05T18:43:19.701Z,63.23
2023-01-05T18:45:46.341Z,62.89
2023-01-05T18:48:13.011Z,63.20
2023-01-05T18:50:42.456Z,63.30
2023-01-05T18:53:09.058Z,63.13
2023-01-05T18:55:40.306Z,63.07
2023-01-05T18:58:06.838Z,63.14
2023-01-05T19:00:33.375Z,63.13
2023-01-05T19:02:59.906Z,63.10
2023-01-05T19:05:26.436Z,63.16
2023-01-05T19:07:53.393Z,63.34
2023-01-05T19:10:20.502Z,63.44
2023-01-05T19:12:47.065Z,63.56
2023-01-05T19:15:13.716Z,63.01
2023-01-05T19:17:40.522Z,63.21
2023-01-05T19:20:07.728Z,63.13
2023-01-05T19:22:34.588Z,63.21
2023-01-05T19:25:01.339Z,63.70
2023-01-05T19:27:28.110Z,63.19
2023-01-05T19:29:54.663Z,63.29
2023-01-05T19:32:21.169Z,63.58
2023-01-05T19:34:47.642Z,63.41
2023-01-05T19:37:14.155Z,63.38
2023-01-05T19:39:41.159Z,63.45
2023-01-05T19:42:07.786Z,63.42
2023-01-05T19:44:34.318Z,63.73
2023-01-05T19:47:00.902Z,63.92
2023-01-05T19:49:28.141Z,63.57
2023-01-05T19:51:55.247Z,63.85
2023-01-05T19:54:22.743Z,64.01
2023-01-05T19:56:49.515Z,63.47
2023-01-05T19:59:18.577Z,63.55
2023-01-05T20:01:45.415Z,63.58
2023-01-05T20:04:12.039Z,63.62
2023-01-05T20:06:41.191Z,63.67
2023-01-05T20:09:10.601Z,64.13
2023-01-05T20:11:39.613Z,63.83
2023-01-05T20:14:18.108Z,63.88
2023-01-05T20:16:55.979Z,63.92
2023-01-05T20:19:26.603Z,63.61
2023-01-05T20:21:53.782Z,63.48
2023-01-05T20:24:23.916Z,63.93
2023-01-05T20:26:52.917Z,63.71
2023-01-05T20:29:21.144Z,63.63
2023-01-05T20:32:00.533Z,63.50
2023-01-05T20:34:31.948Z,63.70
2023-01-05T20:36:59.941Z,63.69
2023-01-05T20:39:26.521Z,63.40
2023-01-05T20:41:54.204Z,63.54
2023-01-05T20:44:25.256Z,63.35
2023-01-05T20:46:54.427Z,63.27
2023-01-05T20:49:22.246Z,63.44
2023-01-05T20:51:49.547Z,63.08
2023-01-05T20:54:16.147Z,63.01
2023-01-05T20:56:43.813Z,63.31
2023-01-05T20:59:31.218Z,63.17
2023-01-05T21:01:59.209Z,63.16
2023-01-05T21:04:27.301Z,63.20
2023-01-05T21:07:01.300Z,63.23
2023-01-05T21:09:29.548Z,63.41
2023-01-05T21:11:57.465Z,62.77
2023-01-05T21:14:23.984Z,62.84
2023-01-05T21:16:52.945Z,62.73
2023-01-05T21:19:22.977Z,63.18
2023-01-05T21:21:53.867Z,62.77
2023-01-05T21:24:20.803Z,62.99
2023-01-05T21:26:47.322Z,62.94
2023-01-05T21:29:16.121Z,62.66
2023-01-05T21:31:43.120Z,62.80
2023-01-05T21:34:11.835Z,62.56
2023-01-05T21:36:43.169Z,62.79
2023-01-05T21:39:20.525Z,62.42
2023-01-05T21:42:07.151Z,62.61
2023-01-05T21:44:34.215Z,62.77
2023-01-05T21:47:00.802Z,62.71
2023-01-05T21:49:27.586Z,62.46
2023-01-05T21:52:12.784Z,62.62
2023-01-05T21:54:57.828Z,62.72
2023-01-05T21:57:24.532Z,62.73
2023-01-05T21:59:51.243Z,62.49
2023-01-05T22:02:17.792Z,62.63
2023-01-05T22:04:44.940Z,62.79
2023-01-05T22:07:12.133Z,62.71
2023-01-05T22:09:38.865Z,62.47
2023-01-05T22:12:09.170Z,62.34
2023-01-05T22:14:36.951Z,62.55
2023-01-05T22:17:05.227Z,62.60
2023-01-05T22:19:31.864Z,62.29
2023-01-05T22:21:58.393Z,62.28
2023-01-05T22:24:24.897Z,62.30
2023-01-05T22:26:51.459Z,62.51
2023-01-05T22:29:19.152Z,62.56
2023-01-05T22:31:45.980Z,62.43
2023-01-05T22:34:12.719Z,62.46
2023-01-05T22:36:39.397Z,62.58
2023-01-05T22:39:06.048Z,62.89
2023-01-05T22:41:32.655Z,62.91
2023-01-05T22:43:59.334Z,62.58
2023-01-05T22:46:29.139Z,62.89
2023-01-05T22:48:57.176Z,63.14
2023-01-05T22:51:34.801Z,62.98
2023-01-05T22:54:01.980Z,63.05
2023-01-05T22:56:30.881Z,63.11
2023-01-05T22:58:58.338Z,63.21
2023-01-05T23:01:26.958Z,63.07
2023-01-05T23:03:55.640Z,63.44
2023-01-05T23:06:22.592Z,63.62
2023-01-05T23:08:50.642Z,63.30
2023-01-05T23:11:18.937Z,63.39
2023-01-05T23:13:46.706Z,63.77
2023-01-05T23:16:14.431Z,63.50
2023-01-05T23:18:41.856Z,63.55
2023-01-05T23:21:10.800Z,63.73
2023-01-05T23:23:38.222Z,63.69
2023-01-05T23:26:06.743Z,63.88
2023-01-05T23:28:33.410Z,63.79
2023-01-05T23:31:00.679Z,63.75
2023-01-05T23:33:34.633Z,63.81
2023-01-05T23:36:02.262Z,63.55
2023-01-05T23:38:29.113Z,63.57
2023-01-05T23:40:57.507Z,63.73
2023-01-05T23:43:27.911Z,63.57
2023-01-05T23:46:10.056Z,63.51
2023-01-05T23:48:37.817Z,63.52
2023-01-05T23:51:07.616Z,63.67
2023-01-05T23:53:34.125Z,63.85
2023-01-05T23:56:25.334Z,63.94
2023-01-05T23:59:00.082Z,63.59
